sensor_id;sensor_type;location;lat;lon;timestamp;pressure;altitude;pressure_sealevel;temperature;humidity
15674;BME280;7937;48.090;16.212;2023-03-22T00:02:47;97625.63;;;8.10;67.25
15674;BME280;7937;48.090;16.212;2023-03-22T00:05:56;97627.25;;;8.11;67.60
15674;BME280;7937;48.090;16.212;2023-03-22T00:08:58;97576.31;;;7.79;68.03
15674;BME280;7937;48.090;16.212;2023-03-22T00:12:00;97630.81;;;8.16;67.76
15674;BME280;7937;48.090;16.212;2023-03-22T00:15:02;97614.56;;;8.13;67.53
15674;BME280;7937;48.090;16.212;2023-03-22T00:18:04;97598.59;;;8.01;67.72
15674;BME280;7937;48.090;16.212;2023-03-22T00:21:10;97626.00;;;8.25;67.86
15674;BME280;7937;48.090;16.212;2023-03-22T00:24:14;97625.75;;;8.26;67.78
15674;BME280;7937;48.090;16.212;2023-03-22T00:27:16;97620.81;;;8.30;67.70
15674;BME280;7937;48.090;16.212;2023-03-22T00:30:18;97611.38;;;8.34;67.48
15674;BME280;7937;48.090;16.212;2023-03-22T00:33:20;97619.09;;;8.36;67.41
15674;BME280;7937;48.090;16.212;2023-03-22T00:36:23;97615.44;;;8.37;67.84
15674;BME280;7937;48.090;16.212;2023-03-22T00:39:25;97608.88;;;8.39;67.87
15674;BME280;7937;48.090;16.212;2023-03-22T00:42:27;97610.47;;;8.40;67.84
15674;BME280;7937;48.090;16.212;2023-03-22T00:45:29;97590.25;;;8.27;67.60
15674;BME280;7937;48.090;16.212;2023-03-22T00:48:32;97602.28;;;8.42;67.82
15674;BME280;7937;48.090;16.212;2023-03-22T00:51:34;97588.06;;;8.36;67.94
15674;BME280;7937;48.090;16.212;2023-03-22T00:54:36;97594.09;;;8.43;67.87
15674;BME280;7937;48.090;16.212;2023-03-22T00:57:38;97591.44;;;8.43;67.87
15674;BME280;7937;48.090;16.212;2023-03-22T01:00:40;97591.44;;;8.43;67.81
15674;BME280;7937;48.090;16.212;2023-03-22T01:03:43;97589.34;;;8.45;67.78
15674;BME280;7937;48.090;16.212;2023-03-22T01:06:48;97590.41;;;8.44;67.98
15674;BME280;7937;48.090;16.212;2023-03-22T01:09:51;97587.38;;;8.41;68.26
15674;BME280;7937;48.090;16.212;2023-03-22T01:12:53;97586.34;;;8.42;68.27
15674;BME280;7937;48.090;16.212;2023-03-22T01:15:57;97589.25;;;8.40;68.35
15674;BME280;7937;48.090;16.212;2023-03-22T01:18:59;97586.81;;;8.39;68.13
15674;BME280;7937;48.090;16.212;2023-03-22T01:22:03;97586.44;;;8.35;68.37
15674;BME280;7937;48.090;16.212;2023-03-22T01:25:06;97583.78;;;8.35;68.32
15674;BME280;7937;48.090;16.212;2023-03-22T01:28:09;97589.31;;;8.34;68.58
15674;BME280;7937;48.090;16.212;2023-03-22T01:31:11;97586.56;;;8.28;68.73
15674;BME280;7937;48.090;16.212;2023-03-22T01:34:13;97571.06;;;8.25;68.64
15674;BME280;7937;48.090;16.212;2023-03-22T01:37:15;97571.53;;;8.22;68.65
15674;BME280;7937;48.090;16.212;2023-03-22T01:40:19;97558.97;;;8.18;68.81
15674;BME280;7937;48.090;16.212;2023-03-22T01:43:21;97564.97;;;8.25;68.98
15674;BME280;7937;48.090;16.212;2023-03-22T01:46:23;97567.84;;;8.23;68.64
15674;BME280;7937;48.090;16.212;2023-03-22T01:49:32;97565.19;;;8.23;68.60
15674;BME280;7937;48.090;16.212;2023-03-22T01:52:35;97549.16;;;8.18;68.72
15674;BME280;7937;48.090;16.212;2023-03-22T01:55:44;97558.16;;;8.29;68.67
15674;BME280;7937;48.090;16.212;2023-03-22T01:58:55;97542.34;;;8.11;69.11
15674;BME280;7937;48.090;16.212;2023-03-22T02:02:06;97562.44;;;8.30;68.92
15674;BME280;7937;48.090;16.212;2023-03-22T02:05:09;97561.97;;;8.33;68.87
15674;BME280;7937;48.090;16.212;2023-03-22T02:08:13;97561.09;;;8.39;68.91
15674;BME280;7937;48.090;16.212;2023-03-22T02:11:35;97562.69;;;8.40;68.74
15674;BME280;7937;48.090;16.212;2023-03-22T02:28:52;97561.53;;;8.36;68.96
15674;BME280;7937;48.090;16.212;2023-03-22T02:45:53;97548.72;;;8.45;69.10
15674;BME280;7937;48.090;16.212;2023-03-22T02:49:05;97547.22;;;8.37;69.08
15674;BME280;7937;48.090;16.212;2023-03-22T02:52:36;97546.06;;;8.45;69.23
15674;BME280;7937;48.090;16.212;2023-03-22T02:55:54;97550.03;;;8.42;68.86
15674;BME280;7937;48.090;16.212;2023-03-22T02:59:02;97559.72;;;8.48;68.75
15674;BME280;7937;48.090;16.212;2023-03-22T03:02:09;97516.97;;;8.26;68.73
15674;BME280;7937;48.090;16.212;2023-03-22T03:05:13;97545.38;;;8.49;68.93
15674;BME280;7937;48.090;16.212;2023-03-22T03:08:17;97547.25;;;8.49;69.46
15674;BME280;7937;48.090;16.212;2023-03-22T03:11:22;97536.75;;;8.42;69.12
15674;BME280;7937;48.090;16.212;2023-03-22T03:14:27;97528.38;;;8.27;69.18
15674;BME280;7937;48.090;16.212;2023-03-22T03:21:06;97555.09;;;8.44;69.31
15674;BME280;7937;48.090;16.212;2023-03-22T03:27:46;97558.19;;;8.41;69.41
15674;BME280;7937;48.090;16.212;2023-03-22T03:30:59;97555.78;;;8.39;69.29
15674;BME280;7937;48.090;16.212;2023-03-22T03:37:39;97560.28;;;8.39;69.42
15674;BME280;7937;48.090;16.212;2023-03-22T03:40:46;97568.59;;;8.42;69.31
15674;BME280;7937;48.090;16.212;2023-03-22T03:43:51;97498.72;;;8.07;69.55
15674;BME280;7937;48.090;16.212;2023-03-22T03:46:55;97564.31;;;8.41;69.44
15674;BME280;7937;48.090;16.212;2023-03-22T03:49:58;97556.34;;;8.41;69.24
15674;BME280;7937;48.090;16.212;2023-03-22T03:53:00;97551.28;;;8.40;69.35
15674;BME280;7937;48.090;16.212;2023-03-22T03:56:03;97555.19;;;8.37;69.19
15674;BME280;7937;48.090;16.212;2023-03-22T03:59:12;97566.69;;;8.31;69.06
15674;BME280;7937;48.090;16.212;2023-03-22T04:02:17;97559.91;;;8.23;69.56
15674;BME280;7937;48.090;16.212;2023-03-22T04:05:19;97512.56;;;7.85;69.73
15674;BME280;7937;48.090;16.212;2023-03-22T04:08:22;97559.41;;;8.15;69.58
15674;BME280;7937;48.090;16.212;2023-03-22T04:11:24;97551.69;;;8.13;69.83
15674;BME280;7937;48.090;16.212;2023-03-22T04:14:30;97561.28;;;8.14;69.81
15674;BME280;7937;48.090;16.212;2023-03-22T04:17:40;97558.63;;;8.14;69.35
15674;BME280;7937;48.090;16.212;2023-03-22T04:20:45;97562.06;;;8.15;69.77
15674;BME280;7937;48.090;16.212;2023-03-22T04:23:47;97563.13;;;8.14;69.78
15674;BME280;7937;48.090;16.212;2023-03-22T04:26:50;97555.38;;;8.12;69.84
15674;BME280;7937;48.090;16.212;2023-03-22T04:30:02;97569.47;;;8.13;69.79
15674;BME280;7937;48.090;16.212;2023-03-22T04:33:31;97566.09;;;8.06;70.13
15674;BME280;7937;48.090;16.212;2023-03-22T04:36:49;97565.06;;;8.07;69.94
15674;BME280;7937;48.090;16.212;2023-03-22T04:40:06;97565.84;;;8.07;69.87
15674;BME280;7937;48.090;16.212;2023-03-22T04:43:15;97565.06;;;8.07;70.01
15674;BME280;7937;48.090;16.212;2023-03-22T04:46:32;97564.84;;;8.08;69.72
15674;BME280;7937;48.090;16.212;2023-03-22T04:49:38;97503.88;;;7.78;69.34
15674;BME280;7937;48.090;16.212;2023-03-22T04:52:40;97565.97;;;8.12;69.30
15674;BME280;7937;48.090;16.212;2023-03-22T04:55:42;97565.88;;;8.19;69.20
15674;BME280;7937;48.090;16.212;2023-03-22T04:58:46;97559.22;;;8.28;68.77
15674;BME280;7937;48.090;16.212;2023-03-22T05:01:50;97565.44;;;8.34;68.85
15674;BME280;7937;48.090;16.212;2023-03-22T05:04:56;97566.47;;;8.33;69.03
15674;BME280;7937;48.090;16.212;2023-03-22T05:08:08;97558.28;;;8.34;69.08
15674;BME280;7937;48.090;16.212;2023-03-22T05:11:13;97553.06;;;8.16;69.30
15674;BME280;7937;48.090;16.212;2023-03-22T05:14:20;97569.72;;;8.35;68.70
15674;BME280;7937;48.090;16.212;2023-03-22T05:17:22;97568.81;;;8.41;68.57
15674;BME280;7937;48.090;16.212;2023-03-22T05:20:30;97565.94;;;8.42;68.38
15674;BME280;7937;48.090;16.212;2023-03-22T05:23:49;97566.75;;;8.43;68.10
15674;BME280;7937;48.090;16.212;2023-03-22T05:26:53;97577.69;;;8.46;68.06
15674;BME280;7937;48.090;16.212;2023-03-22T05:30:00;97577.81;;;8.51;68.16
15674;BME280;7937;48.090;16.212;2023-03-22T05:33:15;97578.53;;;8.59;67.85
15674;BME280;7937;48.090;16.212;2023-03-22T05:36:25;97570.91;;;8.62;67.92
15674;BME280;7937;48.090;16.212;2023-03-22T05:39:50;97571.59;;;8.69;68.41
15674;BME280;7937;48.090;16.212;2023-03-22T05:42:54;97580.81;;;8.67;68.18
15674;BME280;7937;48.090;16.212;2023-03-22T05:45:59;97584.16;;;8.74;67.84
15674;BME280;7937;48.090;16.212;2023-03-22T05:49:11;97568.00;;;8.75;67.59
15674;BME280;7937;48.090;16.212;2023-03-22T05:52:15;97556.31;;;8.76;67.27
15674;BME280;7937;48.090;16.212;2023-03-22T05:55:40;97575.69;;;9.00;67.37
15674;BME280;7937;48.090;16.212;2023-03-22T05:58:42;97594.25;;;9.24;66.78
15674;BME280;7937;48.090;16.212;2023-03-22T06:01:49;97576.34;;;9.19;66.68
15674;BME280;7937;48.090;16.212;2023-03-22T06:04:55;97603.31;;;9.51;66.48
15674;BME280;7937;48.090;16.212;2023-03-22T06:07:59;97605.13;;;9.63;66.19
15674;BME280;7937;48.090;16.212;2023-03-22T06:11:01;97610.06;;;9.71;65.92
15674;BME280;7937;48.090;16.212;2023-03-22T06:14:04;97611.38;;;9.85;65.48
15674;BME280;7937;48.090;16.212;2023-03-22T06:17:24;97618.09;;;10.04;64.67
15674;BME280;7937;48.090;16.212;2023-03-22T06:20:27;97614.66;;;10.21;64.52
15674;BME280;7937;48.090;16.212;2023-03-22T06:23:34;97606.38;;;10.34;64.09
15674;BME280;7937;48.090;16.212;2023-03-22T06:26:36;97610.50;;;10.42;63.43
15674;BME280;7937;48.090;16.212;2023-03-22T06:29:39;97606.88;;;10.48;64.03
15674;BME280;7937;48.090;16.212;2023-03-22T06:32:41;97592.66;;;10.42;63.41
15674;BME280;7937;48.090;16.212;2023-03-22T06:35:43;97612.84;;;10.55;63.61
15674;BME280;7937;48.090;16.212;2023-03-22T06:38:54;97619.88;;;10.61;63.30
15674;BME280;7937;48.090;16.212;2023-03-22T06:41:56;97618.63;;;10.69;63.11
15674;BME280;7937;48.090;16.212;2023-03-22T06:44:58;97621.16;;;10.75;63.24
15674;BME280;7937;48.090;16.212;2023-03-22T06:48:05;97614.59;;;10.83;63.43
15674;BME280;7937;48.090;16.212;2023-03-22T06:51:20;97624.34;;;10.94;63.09
15674;BME280;7937;48.090;16.212;2023-03-22T06:54:24;97572.88;;;10.72;62.69
15674;BME280;7937;48.090;16.212;2023-03-22T06:57:27;97590.59;;;11.00;62.53
15674;BME280;7937;48.090;16.212;2023-03-22T07:00:29;97621.91;;;11.31;63.04
15674;BME280;7937;48.090;16.212;2023-03-22T07:03:32;97616.47;;;11.43;62.51
15674;BME280;7937;48.090;16.212;2023-03-22T07:06:39;97622.47;;;11.55;62.05
15674;BME280;7937;48.090;16.212;2023-03-22T07:09:41;97623.44;;;11.71;61.82
15674;BME280;7937;48.090;16.212;2023-03-22T07:12:43;97572.94;;;11.65;61.35
15674;BME280;7937;48.090;16.212;2023-03-22T07:15:49;97620.53;;;12.22;61.25
15674;BME280;7937;48.090;16.212;2023-03-22T07:19:04;97620.31;;;12.65;60.52
15674;BME280;7937;48.090;16.212;2023-03-22T07:22:06;97616.16;;;13.22;59.28
15674;BME280;7937;48.090;16.212;2023-03-22T07:25:09;97614.25;;;13.85;56.75
15674;BME280;7937;48.090;16.212;2023-03-22T07:28:12;97617.53;;;14.33;53.70
15674;BME280;7937;48.090;16.212;2023-03-22T07:31:15;97617.28;;;14.76;51.92
15674;BME280;7937;48.090;16.212;2023-03-22T07:34:24;97616.16;;;15.12;48.68
15674;BME280;7937;48.090;16.212;2023-03-22T07:37:49;97599.72;;;15.29;47.79
15674;BME280;7937;48.090;16.212;2023-03-22T07:40:58;97625.53;;;15.90;46.87
15674;BME280;7937;48.090;16.212;2023-03-22T07:44:13;97605.22;;;16.52;44.61
15674;BME280;7937;48.090;16.212;2023-03-22T07:47:35;97586.28;;;16.96;43.48
15674;BME280;7937;48.090;16.212;2023-03-22T07:50:54;97614.00;;;17.88;40.05
15674;BME280;7937;48.090;16.212;2023-03-22T07:54:00;97616.91;;;17.48;40.98
15674;BME280;7937;48.090;16.212;2023-03-22T07:57:03;97595.03;;;17.31;40.90
15674;BME280;7937;48.090;16.212;2023-03-22T08:00:10;97593.44;;;17.06;41.83
15674;BME280;7937;48.090;16.212;2023-03-22T08:03:32;97596.38;;;17.76;40.96
15674;BME280;7937;48.090;16.212;2023-03-22T08:06:40;97616.94;;;18.62;38.86
15674;BME280;7937;48.090;16.212;2023-03-22T08:09:44;97612.25;;;19.96;36.43
15674;BME280;7937;48.090;16.212;2023-03-22T08:12:46;97616.63;;;23.52;29.08
15674;BME280;7937;48.090;16.212;2023-03-22T08:15:55;97612.16;;;24.82;27.80
15674;BME280;7937;48.090;16.212;2023-03-22T08:18:58;97631.34;;;27.92;23.06
15674;BME280;7937;48.090;16.212;2023-03-22T08:22:02;97624.09;;;30.15;20.45
15674;BME280;7937;48.090;16.212;2023-03-22T08:25:27;97629.88;;;31.89;19.22
15674;BME280;7937;48.090;16.212;2023-03-22T08:28:38;97634.31;;;32.95;18.00
15674;BME280;7937;48.090;16.212;2023-03-22T08:31:41;97611.50;;;33.94;16.70
15674;BME280;7937;48.090;16.212;2023-03-22T08:34:44;97620.34;;;34.73;16.05
15674;BME280;7937;48.090;16.212;2023-03-22T08:37:46;97630.84;;;33.73;16.78
15674;BME280;7937;48.090;16.212;2023-03-22T08:40:49;97628.44;;;34.03;16.18
15674;BME280;7937;48.090;16.212;2023-03-22T08:43:55;97635.91;;;32.08;18.13
15674;BME280;7937;48.090;16.212;2023-03-22T08:46:58;97633.66;;;29.02;20.83
15674;BME280;7937;48.090;16.212;2023-03-22T08:50:04;97577.03;;;26.67;23.00
15674;BME280;7937;48.090;16.212;2023-03-22T08:53:21;97613.78;;;25.53;24.68
15674;BME280;7937;48.090;16.212;2023-03-22T08:56:31;97597.22;;;23.92;26.93
15674;BME280;7937;48.090;16.212;2023-03-22T08:59:55;97611.09;;;22.84;28.42
15674;BME280;7937;48.090;16.212;2023-03-22T09:03:18;97610.53;;;22.35;29.40
15674;BME280;7937;48.090;16.212;2023-03-22T09:06:20;97609.59;;;21.57;31.21
15674;BME280;7937;48.090;16.212;2023-03-22T09:09:22;97615.47;;;20.79;32.42
15674;BME280;7937;48.090;16.212;2023-03-22T09:12:26;97610.19;;;21.05;31.91
15674;BME280;7937;48.090;16.212;2023-03-22T09:15:30;97604.09;;;21.31;31.19
15674;BME280;7937;48.090;16.212;2023-03-22T09:18:44;97592.75;;;21.29;32.14
15674;BME280;7937;48.090;16.212;2023-03-22T09:21:50;97582.50;;;21.17;31.46
15674;BME280;7937;48.090;16.212;2023-03-22T09:25:04;97589.06;;;20.85;31.96
15674;BME280;7937;48.090;16.212;2023-03-22T09:28:08;97575.22;;;20.19;33.24
15674;BME280;7937;48.090;16.212;2023-03-22T09:31:10;97588.91;;;20.00;33.24
15674;BME280;7937;48.090;16.212;2023-03-22T09:34:14;97568.97;;;19.60;34.43
15674;BME280;7937;48.090;16.212;2023-03-22T09:37:18;97574.59;;;19.36;35.12
15674;BME280;7937;48.090;16.212;2023-03-22T09:40:28;97585.50;;;19.31;35.19
15674;BME280;7937;48.090;16.212;2023-03-22T09:43:43;97583.28;;;19.19;35.32
15674;BME280;7937;48.090;16.212;2023-03-22T09:46:51;97586.78;;;18.92;34.91
15674;BME280;7937;48.090;16.212;2023-03-22T09:50:06;97559.75;;;18.46;35.05
15674;BME280;7937;48.090;16.212;2023-03-22T09:53:12;97596.66;;;18.83;34.79
15674;BME280;7937;48.090;16.212;2023-03-22T09:56:27;97551.25;;;18.85;34.99
15674;BME280;7937;48.090;16.212;2023-03-22T10:02:59;97578.47;;;19.57;34.17
15674;BME280;7937;48.090;16.212;2023-03-22T10:06:12;97580.28;;;19.62;33.62
15674;BME280;7937;48.090;16.212;2023-03-22T10:13:53;97555.84;;;20.03;32.71
15674;BME280;7937;48.090;16.212;2023-03-22T10:16:36;97534.38;;;19.07;33.85
15674;BME280;7937;48.090;16.212;2023-03-22T10:22:59;97545.38;;;18.97;33.94
15674;BME280;7937;48.090;16.212;2023-03-22T10:26:03;97566.34;;;18.72;34.22
15674;BME280;7937;48.090;16.212;2023-03-22T10:32:17;97553.44;;;20.02;32.19
15674;BME280;7937;48.090;16.212;2023-03-22T10:35:19;97546.28;;;20.65;31.12
15674;BME280;7937;48.090;16.212;2023-03-22T10:38:24;97542.63;;;20.69;31.56
15674;BME280;7937;48.090;16.212;2023-03-22T10:41:27;97533.22;;;21.06;30.84
15674;BME280;7937;48.090;16.212;2023-03-22T10:44:32;97538.28;;;20.37;31.39
15674;BME280;7937;48.090;16.212;2023-03-22T10:50:47;97526.41;;;20.47;31.81
15674;BME280;7937;48.090;16.212;2023-03-22T10:53:51;97528.59;;;21.07;30.88
15674;BME280;7937;48.090;16.212;2023-03-22T10:56:54;97533.19;;;21.37;29.96
15674;BME280;7937;48.090;16.212;2023-03-22T10:59:57;97534.84;;;21.73;29.91
15674;BME280;7937;48.090;16.212;2023-03-22T11:02:59;97498.91;;;20.84;30.10
15674;BME280;7937;48.090;16.212;2023-03-22T11:09:16;97519.22;;;21.04;30.12
15674;BME280;7937;48.090;16.212;2023-03-22T11:12:19;97521.53;;;21.37;29.96
15674;BME280;7937;48.090;16.212;2023-03-22T11:15:29;97523.06;;;21.78;28.86
15674;BME280;7937;48.090;16.212;2023-03-22T11:18:33;97503.75;;;21.79;28.25
15674;BME280;7937;48.090;16.212;2023-03-22T11:21:35;97509.16;;;21.71;29.84
15674;BME280;7937;48.090;16.212;2023-03-22T11:24:37;97519.34;;;21.39;28.73
15674;BME280;7937;48.090;16.212;2023-03-22T11:28:08;97511.22;;;21.65;28.38
15674;BME280;7937;48.090;16.212;2023-03-22T11:31:13;97499.91;;;21.89;28.24
15674;BME280;7937;48.090;16.212;2023-03-22T11:34:18;97500.38;;;22.08;28.52
15674;BME280;7937;48.090;16.212;2023-03-22T11:37:20;97503.41;;;21.81;28.46
15674;BME280;7937;48.090;16.212;2023-03-22T11:40:25;97493.38;;;21.64;28.07
15674;BME280;7937;48.090;16.212;2023-03-22T11:43:39;97487.78;;;21.52;28.59
15674;BME280;7937;48.090;16.212;2023-03-22T11:46:59;97433.53;;;21.26;28.43
15674;BME280;7937;48.090;16.212;2023-03-22T11:50:04;97489.53;;;21.48;28.30
15674;BME280;7937;48.090;16.212;2023-03-22T11:53:14;97492.22;;;21.30;29.33
15674;BME280;7937;48.090;16.212;2023-03-22T11:56:21;97481.41;;;21.48;28.32
15674;BME280;7937;48.090;16.212;2023-03-22T11:59:29;97481.38;;;21.30;29.79
15674;BME280;7937;48.090;16.212;2023-03-22T12:02:49;97472.59;;;21.42;28.28
15674;BME280;7937;48.090;16.212;2023-03-22T12:05:52;97474.41;;;21.64;28.18
15674;BME280;7937;48.090;16.212;2023-03-22T12:09:08;97471.06;;;21.58;28.18
15674;BME280;7937;48.090;16.212;2023-03-22T12:12:19;97453.16;;;21.31;28.22
15674;BME280;7937;48.090;16.212;2023-03-22T12:15:25;97461.47;;;21.44;28.60
15674;BME280;7937;48.090;16.212;2023-03-22T12:18:37;97438.75;;;21.05;27.95
15674;BME280;7937;48.090;16.212;2023-03-22T12:21:43;97460.19;;;20.84;28.76
15674;BME280;7937;48.090;16.212;2023-03-22T12:24:46;97457.75;;;20.43;29.24
15674;BME280;7937;48.090;16.212;2023-03-22T12:27:59;97429.13;;;20.10;28.27
15674;BME280;7937;48.090;16.212;2023-03-22T12:31:04;97447.72;;;20.43;27.83
15674;BME280;7937;48.090;16.212;2023-03-22T12:34:14;97421.03;;;20.19;30.01
15674;BME280;7937;48.090;16.212;2023-03-22T12:37:23;97450.75;;;20.10;32.08
15674;BME280;7937;48.090;16.212;2023-03-22T12:40:36;97442.84;;;19.92;32.52
15674;BME280;7937;48.090;16.212;2023-03-22T12:47:24;97441.91;;;19.74;33.29
15674;BME280;7937;48.090;16.212;2023-03-22T12:50:40;97433.06;;;19.59;33.70
15674;BME280;7937;48.090;16.212;2023-03-22T12:53:52;97430.69;;;19.44;33.75
15674;BME280;7937;48.090;16.212;2023-03-22T12:56:56;97426.50;;;19.38;33.58
15674;BME280;7937;48.090;16.212;2023-03-22T13:00:04;97410.09;;;19.34;32.93
15674;BME280;7937;48.090;16.212;2023-03-22T13:09:38;97419.69;;;19.77;33.56
15674;BME280;7937;48.090;16.212;2023-03-22T13:19:31;97397.81;;;20.18;33.71
15674;BME280;7937;48.090;16.212;2023-03-22T13:25:57;97375.47;;;20.35;32.17
15674;BME280;7937;48.090;16.212;2023-03-22T13:29:08;97386.56;;;20.33;32.06
15674;BME280;7937;48.090;16.212;2023-03-22T13:32:31;97386.91;;;20.01;33.60
15674;BME280;7937;48.090;16.212;2023-03-22T13:35:55;97390.06;;;19.72;33.43
15674;BME280;7937;48.090;16.212;2023-03-22T13:39:01;97387.13;;;19.82;33.83
15674;BME280;7937;48.090;16.212;2023-03-22T13:42:18;97327.34;;;19.39;33.88
15674;BME280;7937;48.090;16.212;2023-03-22T13:45:31;97373.66;;;19.68;33.81
15674;BME280;7937;48.090;16.212;2023-03-22T13:51:49;97372.28;;;19.34;34.27
15674;BME280;7937;48.090;16.212;2023-03-22T13:54:55;97372.66;;;19.42;34.19
15674;BME280;7937;48.090;16.212;2023-03-22T13:57:58;97330.06;;;19.16;33.97
15674;BME280;7937;48.090;16.212;2023-03-22T14:05:17;97359.44;;;19.40;34.13
15674;BME280;7937;48.090;16.212;2023-03-22T14:08:25;97357.31;;;19.51;34.00
15674;BME280;7937;48.090;16.212;2023-03-22T14:11:45;97345.06;;;19.67;33.45
15674;BME280;7937;48.090;16.212;2023-03-22T14:14:54;97358.28;;;19.55;33.01
15674;BME280;7937;48.090;16.212;2023-03-22T14:18:18;97344.53;;;19.43;33.87
15674;BME280;7937;48.090;16.212;2023-03-22T14:21:30;97346.88;;;19.58;33.51
15674;BME280;7937;48.090;16.212;2023-03-22T14:24:35;97345.09;;;19.53;33.12
15674;BME280;7937;48.090;16.212;2023-03-22T14:27:36;97318.78;;;19.45;33.48
15674;BME280;7937;48.090;16.212;2023-03-22T14:30:38;97330.03;;;19.39;32.77
15674;BME280;7937;48.090;16.212;2023-03-22T14:33:41;97340.84;;;19.39;33.15
15674;BME280;7937;48.090;16.212;2023-03-22T14:36:45;97337.47;;;19.33;33.42
15674;BME280;7937;48.090;16.212;2023-03-22T14:39:50;97327.59;;;19.28;33.69
15674;BME280;7937;48.090;16.212;2023-03-22T14:42:51;97326.66;;;19.33;33.54
15674;BME280;7937;48.090;16.212;2023-03-22T14:49:03;97326.47;;;19.29;32.75
15674;BME280;7937;48.090;16.212;2023-03-22T14:52:05;97317.81;;;19.19;33.15
15674;BME280;7937;48.090;16.212;2023-03-22T14:55:09;97328.88;;;19.08;32.94
15674;BME280;7937;48.090;16.212;2023-03-22T14:58:16;97322.91;;;18.98;32.85
15674;BME280;7937;48.090;16.212;2023-03-22T15:01:32;97321.22;;;18.88;33.07
15674;BME280;7937;48.090;16.212;2023-03-22T15:04:35;97314.53;;;18.86;33.21
15674;BME280;7937;48.090;16.212;2023-03-22T15:08:10;97298.75;;;18.79;33.48
15674;BME280;7937;48.090;16.212;2023-03-22T15:11:11;97307.00;;;18.96;33.47
15674;BME280;7937;48.090;16.212;2023-03-22T15:14:14;97305.59;;;18.99;33.52
15674;BME280;7937;48.090;16.212;2023-03-22T15:17:15;97313.44;;;18.87;33.36
15674;BME280;7937;48.090;16.212;2023-03-22T15:20:22;97305.44;;;18.81;33.92
15674;BME280;7937;48.090;16.212;2023-03-22T15:23:39;97300.06;;;18.68;33.97
15674;BME280;7937;48.090;16.212;2023-03-22T15:26:47;97301.09;;;18.58;34.34
15674;BME280;7937;48.090;16.212;2023-03-22T15:29:48;97302.22;;;18.43;34.33
15674;BME280;7937;48.090;16.212;2023-03-22T15:32:49;97294.03;;;18.35;34.84
15674;BME280;7937;48.090;16.212;2023-03-22T15:35:50;97299.72;;;18.33;34.75
15674;BME280;7937;48.090;16.212;2023-03-22T15:38:53;97276.78;;;18.08;35.23
15674;BME280;7937;48.090;16.212;2023-03-22T15:41:56;97296.22;;;18.19;35.46
15674;BME280;7937;48.090;16.212;2023-03-22T15:48:19;97290.94;;;18.00;35.62
15674;BME280;7937;48.090;16.212;2023-03-22T15:51:22;97305.09;;;17.92;36.00
15674;BME280;7937;48.090;16.212;2023-03-22T15:54:30;97303.69;;;17.81;36.22
15674;BME280;7937;48.090;16.212;2023-03-22T15:57:53;97209.28;;;17.12;36.22
15674;BME280;7937;48.090;16.212;2023-03-22T16:01:15;97298.94;;;17.59;36.39
15674;BME280;7937;48.090;16.212;2023-03-22T16:04:20;97301.66;;;17.59;37.08
15674;BME280;7937;48.090;16.212;2023-03-22T16:07:24;97293.53;;;17.45;37.47
15674;BME280;7937;48.090;16.212;2023-03-22T16:10:25;97302.19;;;17.42;37.26
15674;BME280;7937;48.090;16.212;2023-03-22T16:13:27;97306.06;;;17.36;37.55
15674;BME280;7937;48.090;16.212;2023-03-22T16:16:28;97313.59;;;17.20;38.24
15674;BME280;7937;48.090;16.212;2023-03-22T16:19:29;97307.19;;;17.16;39.00
15674;BME280;7937;48.090;16.212;2023-03-22T16:22:30;97309.31;;;17.00;39.33
15674;BME280;7937;48.090;16.212;2023-03-22T16:25:31;97305.53;;;16.82;40.10
15674;BME280;7937;48.090;16.212;2023-03-22T16:28:32;97311.09;;;16.67;40.64
15674;BME280;7937;48.090;16.212;2023-03-22T16:31:33;97279.75;;;16.38;40.47
15674;BME280;7937;48.090;16.212;2023-03-22T16:34:34;97255.59;;;16.14;41.07
15674;BME280;7937;48.090;16.212;2023-03-22T16:37:36;97310.84;;;16.25;41.71
15674;BME280;7937;48.090;16.212;2023-03-22T16:40:44;97310.47;;;16.08;42.02
15674;BME280;7937;48.090;16.212;2023-03-22T16:43:45;97292.88;;;15.73;43.21
15674;BME280;7937;48.090;16.212;2023-03-22T16:46:46;97316.84;;;15.59;44.39
15674;BME280;7937;48.090;16.212;2023-03-22T16:49:47;97290.88;;;15.20;44.42
15674;BME280;7937;48.090;16.212;2023-03-22T16:52:49;97318.53;;;15.21;45.31
15674;BME280;7937;48.090;16.212;2023-03-22T16:55:50;97317.94;;;14.90;45.58
15674;BME280;7937;48.090;16.212;2023-03-22T16:58:51;97309.47;;;14.73;46.73
15674;BME280;7937;48.090;16.212;2023-03-22T17:01:52;97317.91;;;14.51;46.99
15674;BME280;7937;48.090;16.212;2023-03-22T17:04:52;97316.38;;;14.29;47.25
15674;BME280;7937;48.090;16.212;2023-03-22T17:07:55;97313.78;;;13.99;49.13
15674;BME280;7937;48.090;16.212;2023-03-22T17:10:57;97318.38;;;13.83;49.32
15674;BME280;7937;48.090;16.212;2023-03-22T17:13:58;97316.81;;;13.66;49.74
15674;BME280;7937;48.090;16.212;2023-03-22T17:17:00;97300.22;;;13.39;50.01
15674;BME280;7937;48.090;16.212;2023-03-22T17:20:01;97328.34;;;13.36;50.48
15674;BME280;7937;48.090;16.212;2023-03-22T17:23:03;97323.50;;;13.28;50.63
15674;BME280;7937;48.090;16.212;2023-03-22T17:26:05;97303.97;;;13.02;51.15
15674;BME280;7937;48.090;16.212;2023-03-22T17:29:07;97327.47;;;13.00;51.68
15674;BME280;7937;48.090;16.212;2023-03-22T17:32:13;97286.78;;;12.52;51.41
15674;BME280;7937;48.090;16.212;2023-03-22T17:35:18;97340.00;;;12.74;51.99
15674;BME280;7937;48.090;16.212;2023-03-22T17:38:19;97312.38;;;12.38;52.37
15674;BME280;7937;48.090;16.212;2023-03-22T17:41:20;97344.44;;;12.38;52.65
15674;BME280;7937;48.090;16.212;2023-03-22T17:44:21;97340.16;;;12.32;52.40
15674;BME280;7937;48.090;16.212;2023-03-22T17:47:22;97349.09;;;12.10;53.53
15674;BME280;7937;48.090;16.212;2023-03-22T17:50:24;97336.81;;;12.04;53.11
15674;BME280;7937;48.090;16.212;2023-03-22T17:53:30;97321.16;;;11.81;53.46
15674;BME280;7937;48.090;16.212;2023-03-22T17:56:32;97347.38;;;11.84;53.73
15674;BME280;7937;48.090;16.212;2023-03-22T17:59:33;97340.88;;;11.75;54.17
15674;BME280;7937;48.090;16.212;2023-03-22T18:02:37;97339.09;;;11.48;55.13
15674;BME280;7937;48.090;16.212;2023-03-22T18:05:38;97340.28;;;11.30;55.33
15674;BME280;7937;48.090;16.212;2023-03-22T18:08:39;97345.88;;;11.29;55.40